sensor_id;sensor_type;location;lat;lon;timestamp;temperature;humidity
21487;DHT22;10905;50.822;4.336;2023-04-07T00:00:03;10.30;99.90
21487;DHT22;10905;50.822;4.336;2023-04-07T00:02:30;10.20;99.90
21487;DHT22;10905;50.822;4.336;2023-04-07T00:04:57;10.20;99.90
21487;DHT22;10905;50.822;4.336;2023-04-07T00:07:23;10.20;99.90
21487;DHT22;10905;50.822;4.336;2023-04-07T00:09:48;10.20;99.90
21487;DHT22;10905;50.822;4.336;2023-04-07T00:12:14;10.20;99.90
21487;DHT22;10905;50.822;4.336;2023-04-07T00:14:39;10.30;99.90
21487;DHT22;10905;50.822;4.336;2023-04-07T00:17:05;10.30;99.90
21487;DHT22;10905;50.822;4.336;2023-04-07T00:19:30;10.30;99.90
21487;DHT22;10905;50.822;4.336;2023-04-07T00:21:58;10.30;99.90
21487;DHT22;10905;50.822;4.336;2023-04-07T00:24:23;10.30;99.90
21487;DHT22;10905;50.822;4.336;2023-04-07T00:26:49;10.30;99.90
21487;DHT22;10905;50.822;4.336;2023-04-07T00:29:15;10.30;99.90
21487;DHT22;10905;50.822;4.336;2023-04-07T00:31:40;10.30;99.90
21487;DHT22;10905;50.822;4.336;2023-04-07T00:34:06;10.30;99.90
21487;DHT22;10905;50.822;4.336;2023-04-07T00:36:31;10.30;99.90
21487;DHT22;10905;50.822;4.336;2023-04-07T00:38:57;10.30;99.90
21487;DHT22;10905;50.822;4.336;2023-04-07T00:41:23;10.30;99.90
21487;DHT22;10905;50.822;4.336;2023-04-07T00:43:49;10.40;99.90
21487;DHT22;10905;50.822;4.336;2023-04-07T00:46:16;10.40;99.90
21487;DHT22;10905;50.822;4.336;2023-04-07T00:48:42;10.30;99.90
21487;DHT22;10905;50.822;4.336;2023-04-07T00:51:09;10.40;99.90
21487;DHT22;10905;50.822;4.336;2023-04-07T00:53:34;10.30;99.90
21487;DHT22;10905;50.822;4.336;2023-04-07T00:56:00;10.40;99.90
21487;DHT22;10905;50.822;4.336;2023-04-07T00:58:26;10.40;99.90
21487;DHT22;10905;50.822;4.336;2023-04-07T01:01:03;10.30;99.90
21487;DHT22;10905;50.822;4.336;2023-04-07T01:06:25;10.20;99.90
21487;DHT22;10905;50.822;4.336;2023-04-07T01:13:56;10.20;99.90
21487;DHT22;10905;50.822;4.336;2023-04-07T01:16:26;10.20;99.90
21487;DHT22;10905;50.822;4.336;2023-04-07T01:18:56;10.30;99.90
21487;DHT22;10905;50.822;4.336;2023-04-07T01:21:26;10.30;99.90
21487;DHT22;10905;50.822;4.336;2023-04-07T01:26:40;10.20;99.90
21487;DHT22;10905;50.822;4.336;2023-04-07T01:31:50;10.10;99.90
21487;DHT22;10905;50.822;4.336;2023-04-07T01:34:18;10.10;99.90
21487;DHT22;10905;50.822;4.336;2023-04-07T01:36:45;10.00;99.90
21487;DHT22;10905;50.822;4.336;2023-04-07T01:39:12;10.00;99.90
21487;DHT22;10905;50.822;4.336;2023-04-07T01:41:38;10.00;99.90
21487;DHT22;10905;50.822;4.336;2023-04-07T01:44:06;10.10;99.90
21487;DHT22;10905;50.822;4.336;2023-04-07T01:46:33;10.20;99.90
21487;DHT22;10905;50.822;4.336;2023-04-07T01:48:58;10.10;99.90
21487;DHT22;10905;50.822;4.336;2023-04-07T01:51:25;10.00;99.90
21487;DHT22;10905;50.822;4.336;2023-04-07T01:53:53;10.00;99.90
21487;DHT22;10905;50.822;4.336;2023-04-07T01:56:19;10.00;99.90
21487;DHT22;10905;50.822;4.336;2023-04-07T01:58:44;10.00;99.90
21487;DHT22;10905;50.822;4.336;2023-04-07T02:01:10;10.00;99.90
21487;DHT22;10905;50.822;4.336;2023-04-07T02:03:45;9.90;99.90
21487;DHT22;10905;50.822;4.336;2023-04-07T02:06:18;9.90;99.90
21487;DHT22;10905;50.822;4.336;2023-04-07T02:08:48;10.00;99.90
21487;DHT22;10905;50.822;4.336;2023-04-07T02:11:17;10.00;99.90
21487;DHT22;10905;50.822;4.336;2023-04-07T02:13:45;10.00;99.90
21487;DHT22;10905;50.822;4.336;2023-04-07T02:16:11;9.90;99.90
21487;DHT22;10905;50.822;4.336;2023-04-07T02:18:37;9.90;99.90
21487;DHT22;10905;50.822;4.336;2023-04-07T02:21:03;9.90;99.90
21487;DHT22;10905;50.822;4.336;2023-04-07T02:23:30;9.90;99.90
21487;DHT22;10905;50.822;4.336;2023-04-07T02:25:59;10.00;99.90
21487;DHT22;10905;50.822;4.336;2023-04-07T02:28:24;10.00;99.90
21487;DHT22;10905;50.822;4.336;2023-04-07T02:30:50;9.90;99.90
21487;DHT22;10905;50.822;4.336;2023-04-07T02:33:15;10.00;99.90
21487;DHT22;10905;50.822;4.336;2023-04-07T02:35:41;10.00;99.90
21487;DHT22;10905;50.822;4.336;2023-04-07T02:38:07;10.00;99.90
21487;DHT22;10905;50.822;4.336;2023-04-07T02:40:32;10.00;99.90
21487;DHT22;10905;50.822;4.336;2023-04-07T02:42:58;9.90;99.90
21487;DHT22;10905;50.822;4.336;2023-04-07T02:45:23;9.90;99.90
21487;DHT22;10905;50.822;4.336;2023-04-07T02:47:49;9.90;99.90
21487;DHT22;10905;50.822;4.336;2023-04-07T02:50:15;10.00;99.90
21487;DHT22;10905;50.822;4.336;2023-04-07T02:52:40;10.00;99.90
21487;DHT22;10905;50.822;4.336;2023-04-07T02:55:06;10.00;99.90
21487;DHT22;10905;50.822;4.336;2023-04-07T02:57:32;9.90;99.90
21487;DHT22;10905;50.822;4.336;2023-04-07T02:59:58;9.90;99.90
21487;DHT22;10905;50.822;4.336;2023-04-07T03:02:24;9.90;99.90
21487;DHT22;10905;50.822;4.336;2023-04-07T03:04:52;9.90;99.90
21487;DHT22;10905;50.822;4.336;2023-04-07T03:07:18;9.70;99.90
21487;DHT22;10905;50.822;4.336;2023-04-07T03:09:44;9.60;99.90
21487;DHT22;10905;50.822;4.336;2023-04-07T03:12:10;9.60;99.90
21487;DHT22;10905;50.822;4.336;2023-04-07T03:14:36;9.70;99.90
21487;DHT22;10905;50.822;4.336;2023-04-07T03:17:02;9.70;99.90
21487;DHT22;10905;50.822;4.336;2023-04-07T03:19:28;9.70;99.90
21487;DHT22;10905;50.822;4.336;2023-04-07T03:21:54;9.80;99.90
21487;DHT22;10905;50.822;4.336;2023-04-07T03:24:20;9.80;99.90
21487;DHT22;10905;50.822;4.336;2023-04-07T03:26:46;9.70;99.90
21487;DHT22;10905;50.822;4.336;2023-04-07T03:29:11;9.60;99.90
21487;DHT22;10905;50.822;4.336;2023-04-07T03:31:37;9.60;99.90
21487;DHT22;10905;50.822;4.336;2023-04-07T03:34:03;9.60;99.90
21487;DHT22;10905;50.822;4.336;2023-04-07T03:36:29;9.60;99.90
21487;DHT22;10905;50.822;4.336;2023-04-07T03:38:56;9.60;99.90
21487;DHT22;10905;50.822;4.336;2023-04-07T03:41:21;9.50;99.90
21487;DHT22;10905;50.822;4.336;2023-04-07T03:43:47;9.70;99.90
21487;DHT22;10905;50.822;4.336;2023-04-07T03:46:13;9.70;99.90
21487;DHT22;10905;50.822;4.336;2023-04-07T03:48:38;9.60;99.90
21487;DHT22;10905;50.822;4.336;2023-04-07T03:51:05;9.70;99.90
21487;DHT22;10905;50.822;4.336;2023-04-07T03:53:31;9.70;99.90
21487;DHT22;10905;50.822;4.336;2023-04-07T03:55:57;9.70;99.90
21487;DHT22;10905;50.822;4.336;2023-04-07T03:58:22;9.70;99.90
21487;DHT22;10905;50.822;4.336;2023-04-07T04:00:48;9.60;99.90
21487;DHT22;10905;50.822;4.336;2023-04-07T04:03:14;9.60;99.90
21487;DHT22;10905;50.822;4.336;2023-04-07T04:05:39;9.50;99.90
21487;DHT22;10905;50.822;4.336;2023-04-07T04:08:05;9.40;99.90
21487;DHT22;10905;50.822;4.336;2023-04-07T04:10:31;9.40;99.90
21487;DHT22;10905;50.822;4.336;2023-04-07T04:12:56;9.30;99.90
21487;DHT22;10905;50.822;4.336;2023-04-07T04:15:25;9.30;99.90
21487;DHT22;10905;50.822;4.336;2023-04-07T04:17:51;9.40;99.90
21487;DHT22;10905;50.822;4.336;2023-04-07T04:20:16;9.40;99.90
21487;DHT22;10905;50.822;4.336;2023-04-07T04:22:42;9.40;99.90
21487;DHT22;10905;50.822;4.336;2023-04-07T04:25:08;9.30;99.90
21487;DHT22;10905;50.822;4.336;2023-04-07T04:27:34;9.40;99.90
21487;DHT22;10905;50.822;4.336;2023-04-07T04:29:59;9.50;99.90
21487;DHT22;10905;50.822;4.336;2023-04-07T04:32:25;9.70;99.90
21487;DHT22;10905;50.822;4.336;2023-04-07T04:34:51;9.70;99.90
21487;DHT22;10905;50.822;4.336;2023-04-07T04:37:16;9.70;99.90
21487;DHT22;10905;50.822;4.336;2023-04-07T04:39:42;9.70;99.90
21487;DHT22;10905;50.822;4.336;2023-04-07T04:42:08;9.60;99.90
21487;DHT22;10905;50.822;4.336;2023-04-07T04:44:33;9.40;99.90
21487;DHT22;10905;50.822;4.336;2023-04-07T04:46:59;9.30;99.90
21487;DHT22;10905;50.822;4.336;2023-04-07T04:49:24;9.30;99.90
21487;DHT22;10905;50.822;4.336;2023-04-07T04:51:50;9.40;99.90
21487;DHT22;10905;50.822;4.336;2023-04-07T04:54:19;9.40;99.90
21487;DHT22;10905;50.822;4.336;2023-04-07T04:56:44;9.40;99.90
21487;DHT22;10905;50.822;4.336;2023-04-07T04:59:10;9.40;99.90
21487;DHT22;10905;50.822;4.336;2023-04-07T05:01:36;9.50;99.90
21487;DHT22;10905;50.822;4.336;2023-04-07T05:04:01;9.50;99.90
21487;DHT22;10905;50.822;4.336;2023-04-07T05:06:27;9.40;99.90
21487;DHT22;10905;50.822;4.336;2023-04-07T05:08:53;9.50;99.90
21487;DHT22;10905;50.822;4.336;2023-04-07T05:11:18;9.40;99.90
21487;DHT22;10905;50.822;4.336;2023-04-07T05:13:46;9.30;99.90
21487;DHT22;10905;50.822;4.336;2023-04-07T05:16:11;9.20;99.90
21487;DHT22;10905;50.822;4.336;2023-04-07T05:18:37;9.10;99.90
21487;DHT22;10905;50.822;4.336;2023-04-07T05:21:03;9.10;99.90
21487;DHT22;10905;50.822;4.336;2023-04-07T05:23:28;9.00;99.90
21487;DHT22;10905;50.822;4.336;2023-04-07T05:25:54;9.10;99.90
21487;DHT22;10905;50.822;4.336;2023-04-07T05:28:20;9.10;99.90
21487;DHT22;10905;50.822;4.336;2023-04-07T05:30:46;9.00;99.90
21487;DHT22;10905;50.822;4.336;2023-04-07T05:33:12;9.10;99.90
21487;DHT22;10905;50.822;4.336;2023-04-07T05:35:38;9.10;99.90
21487;DHT22;10905;50.822;4.336;2023-04-07T05:38:03;9.10;99.90
21487;DHT22;10905;50.822;4.336;2023-04-07T05:40:29;9.10;99.90
21487;DHT22;10905;50.822;4.336;2023-04-07T05:42:55;9.20;99.90
21487;DHT22;10905;50.822;4.336;2023-04-07T05:45:20;9.10;99.90
21487;DHT22;10905;50.822;4.336;2023-04-07T05:47:46;9.00;99.90
21487;DHT22;10905;50.822;4.336;2023-04-07T05:50:17;9.10;99.90
21487;DHT22;10905;50.822;4.336;2023-04-07T05:52:43;9.10;99.90
21487;DHT22;10905;50.822;4.336;2023-04-07T05:55:08;9.20;99.90
21487;DHT22;10905;50.822;4.336;2023-04-07T05:57:34;9.30;99.90
21487;DHT22;10905;50.822;4.336;2023-04-07T06:00:00;9.40;99.90
21487;DHT22;10905;50.822;4.336;2023-04-07T06:02:25;9.40;99.90
21487;DHT22;10905;50.822;4.336;2023-04-07T06:04:51;9.40;99.90
21487;DHT22;10905;50.822;4.336;2023-04-07T06:07:17;9.50;99.90
21487;DHT22;10905;50.822;4.336;2023-04-07T06:09:42;9.50;99.90
21487;DHT22;10905;50.822;4.336;2023-04-07T06:12:08;9.50;99.90
21487;DHT22;10905;50.822;4.336;2023-04-07T06:14:35;9.40;99.90
21487;DHT22;10905;50.822;4.336;2023-04-07T06:17:00;9.40;99.90
21487;DHT22;10905;50.822;4.336;2023-04-07T06:19:26;9.50;99.90
21487;DHT22;10905;50.822;4.336;2023-04-07T06:21:52;9.50;99.90
21487;DHT22;10905;50.822;4.336;2023-04-07T06:24:18;9.60;99.90
21487;DHT22;10905;50.822;4.336;2023-04-07T06:26:44;9.70;99.90
21487;DHT22;10905;50.822;4.336;2023-04-07T06:29:09;9.50;99.90
21487;DHT22;10905;50.822;4.336;2023-04-07T06:31:35;9.50;99.90
21487;DHT22;10905;50.822;4.336;2023-04-07T06:34:01;9.40;99.90
21487;DHT22;10905;50.822;4.336;2023-04-07T06:36:27;9.30;99.90
21487;DHT22;10905;50.822;4.336;2023-04-07T06:38:53;9.40;99.90
21487;DHT22;10905;50.822;4.336;2023-04-07T06:41:19;9.50;99.90
21487;DHT22;10905;50.822;4.336;2023-04-07T06:43:46;9.50;99.90
21487;DHT22;10905;50.822;4.336;2023-04-07T06:46:12;9.60;99.90
21487;DHT22;10905;50.822;4.336;2023-04-07T06:48:37;9.60;99.90
21487;DHT22;10905;50.822;4.336;2023-04-07T06:51:03;9.60;99.90
21487;DHT22;10905;50.822;4.336;2023-04-07T06:53:29;9.60;99.90
21487;DHT22;10905;50.822;4.336;2023-04-07T06:56:05;9.80;99.90
21487;DHT22;10905;50.822;4.336;2023-04-07T06:58:31;9.80;99.90
21487;DHT22;10905;50.822;4.336;2023-04-07T07:00:56;9.90;99.90
21487;DHT22;10905;50.822;4.336;2023-04-07T07:03:22;9.80;99.90
21487;DHT22;10905;50.822;4.336;2023-04-07T07:05:48;9.60;99.90
21487;DHT22;10905;50.822;4.336;2023-04-07T07:08:13;9.60;99.90
21487;DHT22;10905;50.822;4.336;2023-04-07T07:10:41;9.70;99.90
21487;DHT22;10905;50.822;4.336;2023-04-07T07:13:06;9.70;99.90
21487;DHT22;10905;50.822;4.336;2023-04-07T07:15:35;9.80;99.90
21487;DHT22;10905;50.822;4.336;2023-04-07T07:18:01;9.80;99.90
21487;DHT22;10905;50.822;4.336;2023-04-07T07:20:26;9.70;99.90
21487;DHT22;10905;50.822;4.336;2023-04-07T07:22:52;9.70;99.90
21487;DHT22;10905;50.822;4.336;2023-04-07T07:25:18;9.80;99.90
21487;DHT22;10905;50.822;4.336;2023-04-07T07:27:43;9.60;99.90
21487;DHT22;10905;50.822;4.336;2023-04-07T07:30:09;9.80;99.90
21487;DHT22;10905;50.822;4.336;2023-04-07T07:32:35;9.80;99.90
21487;DHT22;10905;50.822;4.336;2023-04-07T07:35:01;9.60;99.90
21487;DHT22;10905;50.822;4.336;2023-04-07T07:37:26;9.60;99.90
21487;DHT22;10905;50.822;4.336;2023-04-07T07:39:52;9.80;99.90
21487;DHT22;10905;50.822;4.336;2023-04-07T07:42:18;10.00;99.90
21487;DHT22;10905;50.822;4.336;2023-04-07T07:44:43;9.90;99.90
21487;DHT22;10905;50.822;4.336;2023-04-07T07:47:09;10.00;99.90
21487;DHT22;10905;50.822;4.336;2023-04-07T07:49:37;10.10;99.90
21487;DHT22;10905;50.822;4.336;2023-04-07T07:52:02;10.20;99.90
21487;DHT22;10905;50.822;4.336;2023-04-07T07:54:28;10.30;99.90
21487;DHT22;10905;50.822;4.336;2023-04-07T07:56:54;10.20;99.90
21487;DHT22;10905;50.822;4.336;2023-04-07T07:59:19;10.20;99.90
21487;DHT22;10905;50.822;4.336;2023-04-07T08:01:45;10.10;99.90
21487;DHT22;10905;50.822;4.336;2023-04-07T08:04:11;10.00;99.90
21487;DHT22;10905;50.822;4.336;2023-04-07T08:06:37;9.90;99.90
21487;DHT22;10905;50.822;4.336;2023-04-07T08:09:03;9.90;99.90
21487;DHT22;10905;50.822;4.336;2023-04-07T08:11:28;9.90;99.90
21487;DHT22;10905;50.822;4.336;2023-04-07T08:13:54;9.70;99.90
21487;DHT22;10905;50.822;4.336;2023-04-07T08:16:20;9.70;99.90
21487;DHT22;10905;50.822;4.336;2023-04-07T08:18:46;9.90;99.90
21487;DHT22;10905;50.822;4.336;2023-04-07T08:21:12;10.00;99.90
21487;DHT22;10905;50.822;4.336;2023-04-07T08:23:38;10.00;99.90
21487;DHT22;10905;50.822;4.336;2023-04-07T08:26:04;10.00;99.90
21487;DHT22;10905;50.822;4.336;2023-04-07T08:28:29;10.00;99.90
21487;DHT22;10905;50.822;4.336;2023-04-07T08:30:55;10.20;99.90
21487;DHT22;10905;50.822;4.336;2023-04-07T08:33:21;10.20;99.90
21487;DHT22;10905;50.822;4.336;2023-04-07T08:35:46;10.10;99.90
21487;DHT22;10905;50.822;4.336;2023-04-07T08:38:12;10.00;99.90
21487;DHT22;10905;50.822;4.336;2023-04-07T08:40:37;10.00;99.90
21487;DHT22;10905;50.822;4.336;2023-04-07T08:43:08;9.90;99.90
21487;DHT22;10905;50.822;4.336;2023-04-07T08:45:38;10.00;99.90
21487;DHT22;10905;50.822;4.336;2023-04-07T08:48:15;10.10;99.90
21487;DHT22;10905;50.822;4.336;2023-04-07T08:50:44;10.20;99.90
21487;DHT22;10905;50.822;4.336;2023-04-07T08:53:12;10.40;99.90
21487;DHT22;10905;50.822;4.336;2023-04-07T08:55:43;10.60;99.90
21487;DHT22;10905;50.822;4.336;2023-04-07T08:58:09;10.80;99.90
21487;DHT22;10905;50.822;4.336;2023-04-07T09:00:39;10.80;99.90
21487;DHT22;10905;50.822;4.336;2023-04-07T09:03:07;10.90;99.90
21487;DHT22;10905;50.822;4.336;2023-04-07T09:05:34;10.70;99.90
21487;DHT22;10905;50.822;4.336;2023-04-07T09:08:01;10.40;99.90
21487;DHT22;10905;50.822;4.336;2023-04-07T09:10:27;10.40;99.90
21487;DHT22;10905;50.822;4.336;2023-04-07T09:12:53;10.40;99.90
21487;DHT22;10905;50.822;4.336;2023-04-07T09:15:19;10.60;99.90
21487;DHT22;10905;50.822;4.336;2023-04-07T09:17:45;10.80;99.90
21487;DHT22;10905;50.822;4.336;2023-04-07T09:20:12;11.00;99.90
21487;DHT22;10905;50.822;4.336;2023-04-07T09:22:40;11.00;99.90
21487;DHT22;10905;50.822;4.336;2023-04-07T09:25:23;11.30;99.90
21487;DHT22;10905;50.822;4.336;2023-04-07T09:28:03;11.70;99.90
21487;DHT22;10905;50.822;4.336;2023-04-07T09:30:31;12.00;99.90
21487;DHT22;10905;50.822;4.336;2023-04-07T09:32:58;12.20;99.90
21487;DHT22;10905;50.822;4.336;2023-04-07T09:35:24;12.10;99.90
21487;DHT22;10905;50.822;4.336;2023-04-07T09:38:06;12.40;99.90
21487;DHT22;10905;50.822;4.336;2023-04-07T09:40:32;12.40;99.90
21487;DHT22;10905;50.822;4.336;2023-04-07T09:42:58;12.30;99.90
21487;DHT22;10905;50.822;4.336;2023-04-07T09:45:28;12.30;99.90
21487;DHT22;10905;50.822;4.336;2023-04-07T09:47:54;12.10;99.90
21487;DHT22;10905;50.822;4.336;2023-04-07T09:50:34;12.10;99.90
21487;DHT22;10905;50.822;4.336;2023-04-07T09:53:01;12.10;99.90
21487;DHT22;10905;50.822;4.336;2023-04-07T09:55:28;12.10;99.90
21487;DHT22;10905;50.822;4.336;2023-04-07T09:57:54;12.10;99.90
21487;DHT22;10905;50.822;4.336;2023-04-07T10:00:21;12.20;99.90
21487;DHT22;10905;50.822;4.336;2023-04-07T10:02:47;12.10;99.90
21487;DHT22;10905;50.822;4.336;2023-04-07T10:05:14;11.70;99.90
21487;DHT22;10905;50.822;4.336;2023-04-07T10:07:39;11.70;99.90
21487;DHT22;10905;50.822;4.336;2023-04-07T10:10:06;11.90;99.90
21487;DHT22;10905;50.822;4.336;2023-04-07T10:12:34;12.20;99.90
21487;DHT22;10905;50.822;4.336;2023-04-07T10:15:01;12.10;99.90
21487;DHT22;10905;50.822;4.336;2023-04-07T10:17:28;11.90;99.90
21487;DHT22;10905;50.822;4.336;2023-04-07T10:19:58;12.20;99.90
21487;DHT22;10905;50.822;4.336;2023-04-07T10:22:26;12.40;99.90
21487;DHT22;10905;50.822;4.336;2023-04-07T10:24:59;12.50;99.90
21487;DHT22;10905;50.822;4.336;2023-04-07T10:27:34;12.60;99.90
21487;DHT22;10905;50.822;4.336;2023-04-07T10:30:02;12.50;99.90
21487;DHT22;10905;50.822;4.336;2023-04-07T10:32:29;12.50;99.90
21487;DHT22;10905;50.822;4.336;2023-04-07T10:34:56;12.30;99.90
21487;DHT22;10905;50.822;4.336;2023-04-07T10:37:23;12.20;99.90
21487;DHT22;10905;50.822;4.336;2023-04-07T10:39:50;12.20;99.90
21487;DHT22;10905;50.822;4.336;2023-04-07T10:45:05;11.90;99.90
21487;DHT22;10905;50.822;4.336;2023-04-07T10:47:32;11.90;99.90
21487;DHT22;10905;50.822;4.336;2023-04-07T10:50:20;11.70;99.90
21487;DHT22;10905;50.822;4.336;2023-04-07T10:52:48;11.80;99.90
21487;DHT22;10905;50.822;4.336;2023-04-07T10:58:21;11.90;99.90
21487;DHT22;10905;50.822;4.336;2023-04-07T11:03:26;12.10;99.90
21487;DHT22;10905;50.822;4.336;2023-04-07T11:08:35;12.20;99.90
21487;DHT22;10905;50.822;4.336;2023-04-07T11:11:02;12.20;99.90
21487;DHT22;10905;50.822;4.336;2023-04-07T11:16:05;12.10;99.90
21487;DHT22;10905;50.822;4.336;2023-04-07T11:18:30;12.20;99.90
21487;DHT22;10905;50.822;4.336;2023-04-07T11:20:56;12.50;99.90
21487;DHT22;10905;50.822;4.336;2023-04-07T11:23:26;12.80;99.90
21487;DHT22;10905;50.822;4.336;2023-04-07T11:25:58;12.70;99.90
21487;DHT22;10905;50.822;4.336;2023-04-07T11:28:28;12.70;99.90
21487;DHT22;10905;50.822;4.336;2023-04-07T11:30:54;12.60;99.90
21487;DHT22;10905;50.822;4.336;2023-04-07T11:33:25;12.20;99.90
21487;DHT22;10905;50.822;4.336;2023-04-07T11:35:53;12.00;99.90
21487;DHT22;10905;50.822;4.336;2023-04-07T11:38:20;11.80;99.90
21487;DHT22;10905;50.822;4.336;2023-04-07T11:40:47;11.60;99.90
21487;DHT22;10905;50.822;4.336;2023-04-07T11:43:24;11.30;99.90
21487;DHT22;10905;50.822;4.336;2023-04-07T11:46:04;11.20;99.90
21487;DHT22;10905;50.822;4.336;2023-04-07T11:48:32;11.20;99.90
21487;DHT22;10905;50.822;4.336;2023-04-07T11:50:59;11.30;99.90
21487;DHT22;10905;50.822;4.336;2023-04-07T11:53:33;11.30;99.90
21487;DHT22;10905;50.822;4.336;2023-04-07T11:56:03;11.40;99.90
21487;DHT22;10905;50.822;4.336;2023-04-07T11:58:30;11.50;99.90
21487;DHT22;10905;50.822;4.336;2023-04-07T12:00:57;11.40;99.90
21487;DHT22;10905;50.822;4.336;2023-04-07T12:03:23;11.60;99.90
21487;DHT22;10905;50.822;4.336;2023-04-07T12:05:50;11.90;99.90
21487;DHT22;10905;50.822;4.336;2023-04-07T12:08:16;12.20;99.90
21487;DHT22;10905;50.822;4.336;2023-04-07T12:10:43;12.40;99.90
21487;DHT22;10905;50.822;4.336;2023-04-07T12:13:12;12.70;99.90
21487;DHT22;10905;50.822;4.336;2023-04-07T12:15:38;12.80;99.90
21487;DHT22;10905;50.822;4.336;2023-04-07T12:18:03;12.80;99.90
21487;DHT22;10905;50.822;4.336;2023-04-07T12:20:30;12.60;99.90
21487;DHT22;10905;50.822;4.336;2023-04-07T12:22:56;12.40;99.90
21487;DHT22;10905;50.822;4.336;2023-04-07T12:25:22;12.00;99.90
21487;DHT22;10905;50.822;4.336;2023-04-07T12:27:47;11.60;99.90
21487;DHT22;10905;50.822;4.336;2023-04-07T12:30:13;11.50;99.90
21487;DHT22;10905;50.822;4.336;2023-04-07T12:32:39;11.40;99.90
21487;DHT22;10905;50.822;4.336;2023-04-07T12:35:05;11.30;99.90
21487;DHT22;10905;50.822;4.336;2023-04-07T12:37:31;11.30;99.90
21487;DHT22;10905;50.822;4.336;2023-04-07T12:39:57;11.40;99.90
21487;DHT22;10905;50.822;4.336;2023-04-07T12:42:23;11.50;99.90
21487;DHT22;10905;50.822;4.336;2023-04-07T12:44:49;11.60;99.90
21487;DHT22;10905;50.822;4.336;2023-04-07T12:47:16;11.70;99.90
21487;DHT22;10905;50.822;4.336;2023-04-07T12:49:42;11.70;99.90
21487;DHT22;10905;50.822;4.336;2023-04-07T12:52:07;11.70;99.90
21487;DHT22;10905;50.822;4.336;2023-04-07T12:54:33;11.90;99.90
21487;DHT22;10905;50.822;4.336;2023-04-07T12:56:59;11.90;99.90
21487;DHT22;10905;50.822;4.336;2023-04-07T12:59:25;11.80;99.90
21487;DHT22;10905;50.822;4.336;2023-04-07T13:01:52;11.90;99.90
21487;DHT22;10905;50.822;4.336;2023-04-07T13:04:17;12.10;99.90
21487;DHT22;10905;50.822;4.336;2023-04-07T13:06:43;12.20;99.90
21487;DHT22;10905;50.822;4.336;2023-04-07T13:09:09;12.20;99.90
21487;DHT22;10905;50.822;4.336;2023-04-07T13:11:34;12.20;99.90
21487;DHT22;10905;50.822;4.336;2023-04-07T13:14:01;12.10;99.90
21487;DHT22;10905;50.822;4.336;2023-04-07T13:16:27;12.00;99.90
21487;DHT22;10905;50.822;4.336;2023-04-07T13:18:52;12.00;99.90
21487;DHT22;10905;50.822;4.336;2023-04-07T13:21:18;12.00;99.90
21487;DHT22;10905;50.822;4.336;2023-04-07T13:23:44;12.10;99.90
21487;DHT22;10905;50.822;4.336;2023-04-07T13:26:10;12.40;99.90
21487;DHT22;10905;50.822;4.336;2023-04-07T13:28:36;12.60;99.90
21487;DHT22;10905;50.822;4.336;2023-04-07T13:31:02;12.60;99.90
21487;DHT22;10905;50.822;4.336;2023-04-07T13:33:28;12.50;99.90
21487;DHT22;10905;50.822;4.336;2023-04-07T13:35:53;12.50;99.90
21487;DHT22;10905;50.822;4.336;2023-04-07T13:38:19;12.50;99.90
21487;DHT22;10905;50.822;4.336;2023-04-07T13:40:44;12.40;99.90
21487;DHT22;10905;50.822;4.336;2023-04-07T13:43:13;12.40;99.90
21487;DHT22;10905;50.822;4.336;2023-04-07T13:45:39;12.40;99.90
21487;DHT22;10905;50.822;4.336;2023-04-07T13:48:05;12.60;99.90
21487;DHT22;10905;50.822;4.336;2023-04-07T13:50:34;12.60;99.90
21487;DHT22;10905;50.822;4.336;2023-04-07T13:53:03;12.60;99.90
21487;DHT22;10905;50.822;4.336;2023-04-07T13:55:29;12.60;99.90
21487;DHT22;10905;50.822;4.336;2023-04-07T13:57:55;12.60;99.90
21487;DHT22;10905;50.822;4.336;2023-04-07T14:00:20;12.40;99.90
21487;DHT22;10905;50.822;4.336;2023-04-07T14:02:47;12.20;99.90
21487;DHT22;10905;50.822;4.336;2023-04-07T14:05:13;12.20;99.90
21487;DHT22;10905;50.822;4.336;2023-04-07T14:07:39;12.20;99.90
21487;DHT22;10905;50.822;4.336;2023-04-07T14:10:05;12.20;99.90
21487;DHT22;10905;50.822;4.336;2023-04-07T14:12:31;12.10;99.90
21487;DHT22;10905;50.822;4.336;2023-04-07T14:14:56;12.10;99.90
21487;DHT22;10905;50.822;4.336;2023-04-07T14:17:22;12.10;99.90
21487;DHT22;10905;50.822;4.336;2023-04-07T14:19:48;12.00;99.90
21487;DHT22;10905;50.822;4.336;2023-04-07T14:22:13;12.00;99.90
21487;DHT22;10905;50.822;4.336;2023-04-07T14:24:39;11.90;99.90
21487;DHT22;10905;50.822;4.336;2023-04-07T14:27:05;11.90;99.90
21487;DHT22;10905;50.822;4.336;2023-04-07T14:29:31;12.00;99.90
21487;DHT22;10905;50.822;4.336;2023-04-07T14:31:56;12.10;99.90
21487;DHT22;10905;50.822;4.336;2023-04-07T14:34:22;12.10;99.90
21487;DHT22;10905;50.822;4.336;2023-04-07T14:36:55;11.90;99.90
21487;DHT22;10905;50.822;4.336;2023-04-07T14:39:21;11.80;99.90
21487;DHT22;10905;50.822;4.336;2023-04-07T14:41:47;11.90;99.90
21487;DHT22;10905;50.822;4.336;2023-04-07T14:44:13;12.10;99.90
21487;DHT22;10905;50.822;4.336;2023-04-07T14:46:39;12.10;99.90
21487;DHT22;10905;50.822;4.336;2023-04-07T14:49:06;11.90;99.90
21487;DHT22;10905;50.822;4.336;2023-04-07T14:51:32;11.70;99.90
21487;DHT22;10905;50.822;4.336;2023-04-07T14:53:58;11.80;99.90
21487;DHT22;10905;50.822;4.336;2023-04-07T14:56:24;11.80;99.90
21487;DHT22;10905;50.822;4.336;2023-04-07T14:58:50;12.00;99.90
21487;DHT22;10905;50.822;4.336;2023-04-07T15:01:15;12.10;99.90
21487;DHT22;10905;50.822;4.336;2023-04-07T15:03:41;12.10;99.90
21487;DHT22;10905;50.822;4.336;2023-04-07T15:06:08;12.20;99.90
21487;DHT22;10905;50.822;4.336;2023-04-07T15:08:35;12.10;99.90
21487;DHT22;10905;50.822;4.336;2023-04-07T15:11:03;12.20;99.90
21487;DHT22;10905;50.822;4.336;2023-04-07T15:13:29;12.20;99.90
21487;DHT22;10905;50.822;4.336;2023-04-07T15:15:54;12.10;99.90
21487;DHT22;10905;50.822;4.336;2023-04-07T15:18:20;11.90;99.90
21487;DHT22;10905;50.822;4.336;2023-04-07T15:20:45;11.90;99.90
21487;DHT22;10905;50.822;4.336;2023-04-07T15:23:11;11.80;99.90
21487;DHT22;10905;50.822;4.336;2023-04-07T15:25:39;11.80;99.90
21487;DHT22;10905;50.822;4.336;2023-04-07T15:28:04;11.70;99.90
21487;DHT22;10905;50.822;4.336;2023-04-07T15:30:30;11.70;99.90
21487;DHT22;10905;50.822;4.336;2023-04-07T15:33:02;11.90;99.90
21487;DHT22;10905;50.822;4.336;2023-04-07T15:35:29;11.80;99.90
21487;DHT22;10905;50.822;4.336;2023-04-07T15:37:55;11.70;99.90
21487;DHT22;10905;50.822;4.336;2023-04-07T15:40:21;11.70;99.90
21487;DHT22;10905;50.822;4.336;2023-04-07T15:42:47;11.80;99.90
21487;DHT22;10905;50.822;4.336;2023-04-07T15:45:13;12.00;99.90
21487;DHT22;10905;50.822;4.336;2023-04-07T15:47:41;12.00;99.90
21487;DHT22;10905;50.822;4.336;2023-04-07T15:50:07;11.80;99.90
21487;DHT22;10905;50.822;4.336;2023-04-07T15:52:33;11.60;99.90
21487;DHT22;10905;50.822;4.336;2023-04-07T15:54:59;11.60;99.90
21487;DHT22;10905;50.822;4.336;2023-04-07T15:57:24;11.50;99.90